createdAt,value
2018-10-21T00:01:28.869Z,25.30
2018-10-21T00:03:57.326Z,21.13
2018-10-21T00:06:25.763Z,25.83
2018-10-21T00:08:54.545Z,21.37
2018-10-21T00:11:22.964Z,19.27
2018-10-21T00:13:51.436Z,24.80
2018-10-21T00:16:19.949Z,21.80
2018-10-21T00:18:48.465Z,17.87
2018-10-21T00:21:17.041Z,27.90
2018-10-21T00:23:45.430Z,24.20
2018-10-21T00:26:13.945Z,20.13
2018-10-21T00:28:42.732Z,24.50
2018-10-21T00:31:11.186Z,28.37
2018-10-21T00:33:39.620Z,22.63
2018-10-21T00:36:08.175Z,21.50
2018-10-21T00:38:36.580Z,21.30
2018-10-21T00:41:05.530Z,22.73
2018-10-21T00:43:34.345Z,25.87
2018-10-21T00:46:02.905Z,25.80
2018-10-21T00:48:31.385Z,25.03
2018-10-21T00:50:59.976Z,25.50
2018-10-21T00:53:28.457Z,24.60
2018-10-21T00:55:56.940Z,24.00
2018-10-21T00:58:25.821Z,27.83
2018-10-21T01:00:54.403Z,26.13
2018-10-21T01:03:22.880Z,21.00
2018-10-21T01:05:51.357Z,23.63
2018-10-21T01:08:19.811Z,19.87
2018-10-21T01:10:48.270Z,21.90
2018-10-21T01:13:16.770Z,21.30
2018-10-21T01:15:48.657Z,18.90
2018-10-21T01:18:17.149Z,18.23
2018-10-21T01:20:45.545Z,17.10
2018-10-21T01:23:14.093Z,21.90
2018-10-21T01:25:42.572Z,14.30
2018-10-21T01:28:11.061Z,14.77
2018-10-21T01:30:39.536Z,15.53
2018-10-21T01:33:11.116Z,16.67
2018-10-21T01:35:39.548Z,14.87
2018-10-21T01:38:08.091Z,11.57
2018-10-21T01:40:38.647Z,12.47
2018-10-21T01:43:08.287Z,14.93
2018-10-21T01:45:36.780Z,12.77
2018-10-21T01:48:06.616Z,20.23
2018-10-21T01:50:35.142Z,15.67
2018-10-21T01:53:04.707Z,16.70
2018-10-21T01:55:33.210Z,15.57
2018-10-21T01:58:02.120Z,17.47
2018-10-21T02:00:31.406Z,14.80
2018-10-21T02:03:00.215Z,19.67
2018-10-21T02:05:29.083Z,13.87
2018-10-21T02:07:57.684Z,15.20
2018-10-21T02:10:26.263Z,16.00
2018-10-21T02:12:54.956Z,18.47
2018-10-21T02:15:23.632Z,14.77
2018-10-21T02:17:52.066Z,19.73
2018-10-21T02:20:21.411Z,22.57
2018-10-21T02:22:50.290Z,21.67
2018-10-21T02:25:18.881Z,21.50
2018-10-21T02:27:48.193Z,17.70
2018-10-21T02:30:18.526Z,24.47
2018-10-21T02:32:48.422Z,15.83
2018-10-21T02:35:17.513Z,23.27
2018-10-21T02:37:46.301Z,21.07
2018-10-21T02:40:23.657Z,25.60
2018-10-21T02:42:52.171Z,21.43
2018-10-21T02:45:20.664Z,18.13
2018-10-21T02:47:49.121Z,18.13
2018-10-21T02:50:17.596Z,24.23
2018-10-21T02:52:46.081Z,22.37
2018-10-21T02:55:14.560Z,18.83
2018-10-21T02:57:43.038Z,17.63
2018-10-21T03:00:11.480Z,15.73
2018-10-21T03:02:40.012Z,18.77
2018-10-21T03:05:08.817Z,18.20
2018-10-21T03:07:37.257Z,19.03
2018-10-21T03:10:05.954Z,18.03
2018-10-21T03:12:34.432Z,20.23
2018-10-21T03:15:02.936Z,22.33
2018-10-21T03:17:31.347Z,17.53
2018-10-21T03:19:59.866Z,19.83
2018-10-21T03:22:28.348Z,17.57
2018-10-21T03:24:56.821Z,21.03
2018-10-21T03:27:25.307Z,16.13
2018-10-21T03:29:53.783Z,22.67
2018-10-21T03:32:22.268Z,19.17
2018-10-21T03:34:53.710Z,18.67
2018-10-21T03:37:22.208Z,23.87
2018-10-21T03:39:50.672Z,18.97
2018-10-21T03:42:19.112Z,20.60
2018-10-21T03:44:47.577Z,21.10
2018-10-21T03:47:16.088Z,23.57
2018-10-21T03:49:44.593Z,17.07
2018-10-21T03:52:13.144Z,24.27
2018-10-21T03:54:45.686Z,19.07
2018-10-21T03:57:14.234Z,19.10
2018-10-21T03:59:42.707Z,21.13
2018-10-21T04:02:11.150Z,20.80
2018-10-21T04:04:39.605Z,18.63
2018-10-21T04:07:08.120Z,21.07
2018-10-21T04:09:36.610Z,17.47
2018-10-21T04:12:05.477Z,28.23
2018-10-21T04:14:34.011Z,21.37
2018-10-21T04:17:02.571Z,20.00
2018-10-21T04:19:31.000Z,24.17
2018-10-21T04:21:59.484Z,16.63
2018-10-21T04:24:27.917Z,19.20
2018-10-21T04:27:03.149Z,21.70
2018-10-21T04:29:31.667Z,26.83
2018-10-21T04:32:00.128Z,22.20
2018-10-21T04:34:28.614Z,20.07
2018-10-21T04:37:05.997Z,23.17
2018-10-21T04:39:43.771Z,18.60
2018-10-21T04:42:12.257Z,18.50
2018-10-21T04:44:40.750Z,22.80
2018-10-21T04:47:09.346Z,17.13
2018-10-21T04:49:37.690Z,21.20
2018-10-21T04:52:06.228Z,20.23
2018-10-21T04:54:34.752Z,16.27
2018-10-21T04:57:05.085Z,21.63
2018-10-21T04:59:33.546Z,24.47
2018-10-21T05:02:02.306Z,20.10
2018-10-21T05:04:30.856Z,27.47
2018-10-21T05:06:59.400Z,20.37
2018-10-21T05:09:27.870Z,21.60
2018-10-21T05:11:56.472Z,23.87
2018-10-21T05:14:25.246Z,20.97
2018-10-21T05:16:53.842Z,23.43
2018-10-21T05:19:22.306Z,21.03
2018-10-21T05:21:51.095Z,29.17
2018-10-21T05:24:19.601Z,28.70
2018-10-21T05:26:51.334Z,22.63
2018-10-21T05:29:28.951Z,26.50
2018-10-21T05:31:57.453Z,21.13
2018-10-21T05:34:26.178Z,32.00
2018-10-21T05:36:57.242Z,28.00
2018-10-21T05:39:26.631Z,22.27
2018-10-21T05:41:58.383Z,26.77
2018-10-21T05:44:27.503Z,30.43
2018-10-21T05:46:56.094Z,26.97
2018-10-21T05:49:24.559Z,18.33
2018-10-21T05:51:53.124Z,26.23
2018-10-21T05:54:21.812Z,25.73
2018-10-21T05:56:51.416Z,21.93
2018-10-21T05:59:20.006Z,18.73
2018-10-21T06:01:48.747Z,21.93
2018-10-21T06:04:18.784Z,20.57
2018-10-21T06:06:47.390Z,26.50
2018-10-21T06:09:16.022Z,27.87
2018-10-21T06:11:44.527Z,23.33
2018-10-21T06:14:13.135Z,23.63
2018-10-21T06:16:45.851Z,23.53
2018-10-21T06:19:19.075Z,23.50
2018-10-21T06:21:47.790Z,27.90
2018-10-21T06:24:17.081Z,28.47
2018-10-21T06:26:45.568Z,25.03
2018-10-21T06:29:14.547Z,22.03
2018-10-21T06:31:46.415Z,29.07
2018-10-21T06:34:14.993Z,27.07
2018-10-21T06:36:43.500Z,28.00
2018-10-21T06:39:12.152Z,28.53
2018-10-21T06:41:40.743Z,32.07
2018-10-21T06:49:40.283Z,27.40
2018-10-21T06:52:08.756Z,28.07
2018-10-21T06:54:37.329Z,32.67
2018-10-21T06:57:06.339Z,25.00
2018-10-21T06:59:34.815Z,27.47
2018-10-21T07:02:03.301Z,30.17
2018-10-21T07:04:31.962Z,27.90
2018-10-21T07:07:00.471Z,27.63
2018-10-21T07:09:29.008Z,28.40
2018-10-21T07:11:57.708Z,26.57
2018-10-21T07:14:26.306Z,29.63
2018-10-21T07:16:54.731Z,25.40
2018-10-21T07:19:23.257Z,31.43
2018-10-21T07:21:51.766Z,27.33
2018-10-21T07:24:20.233Z,25.47
2018-10-21T07:26:48.705Z,28.00
2018-10-21T07:29:17.271Z,29.33
2018-10-21T07:31:45.714Z,27.80
2018-10-21T07:34:14.194Z,29.47
2018-10-21T07:36:42.687Z,28.90
2018-10-21T07:39:11.806Z,29.43
2018-10-21T07:41:40.288Z,27.60
2018-10-21T07:44:08.873Z,29.17
2018-10-21T07:46:37.356Z,26.53
2018-10-21T07:49:05.861Z,28.40
2018-10-21T07:51:34.407Z,29.93
2018-10-21T07:54:02.993Z,30.87
2018-10-21T07:56:31.583Z,27.93
2018-10-21T07:59:00.167Z,28.13
2018-10-21T08:01:28.819Z,26.80
2018-10-21T08:03:57.327Z,26.23
2018-10-21T08:06:35.830Z,28.83
2018-10-21T08:09:06.546Z,28.23
2018-10-21T08:11:35.071Z,30.37
2018-10-21T08:14:03.656Z,26.90
2018-10-21T08:16:32.163Z,26.10
2018-10-21T08:19:00.695Z,26.00
2018-10-21T08:21:29.484Z,26.73
2018-10-21T08:23:57.968Z,25.27
2018-10-21T08:26:26.415Z,23.27
2018-10-21T08:28:55.012Z,26.67
2018-10-21T08:31:23.471Z,31.50
2018-10-21T08:33:51.951Z,21.63
2018-10-21T08:36:20.563Z,22.37
2018-10-21T08:38:49.348Z,25.03
2018-10-21T08:41:17.805Z,23.20
2018-10-21T08:43:46.316Z,23.90
2018-10-21T08:46:14.919Z,21.47
2018-10-21T08:48:43.347Z,26.50
2018-10-21T08:51:11.942Z,24.00
2018-10-21T08:53:40.598Z,24.37
2018-10-21T08:56:09.467Z,25.37
2018-10-21T08:58:37.954Z,23.87
2018-10-21T09:01:06.474Z,24.03
2018-10-21T09:03:35.257Z,26.63
2018-10-21T09:06:03.874Z,23.93
2018-10-21T09:08:32.424Z,26.23
2018-10-21T09:11:00.933Z,23.80
2018-10-21T09:13:32.648Z,24.57
2018-10-21T09:16:01.272Z,23.47
2018-10-21T09:18:29.828Z,26.67
2018-10-21T09:20:58.413Z,25.20
2018-10-21T09:23:26.885Z,22.70
2018-10-21T09:25:55.469Z,26.43
2018-10-21T09:28:23.952Z,27.67
2018-10-21T09:30:52.409Z,21.43
2018-10-21T09:33:20.950Z,22.17
2018-10-21T09:35:49.491Z,23.67
2018-10-21T09:38:18.073Z,22.27
2018-10-21T09:40:46.651Z,26.87
2018-10-21T09:43:15.160Z,23.87
2018-10-21T09:45:43.555Z,19.33
2018-10-21T09:48:15.184Z,21.57
2018-10-21T09:50:43.677Z,21.50
2018-10-21T09:53:12.157Z,22.73
2018-10-21T09:55:40.672Z,24.00
2018-10-21T09:58:09.265Z,24.07
2018-10-21T10:00:41.842Z,18.23
2018-10-21T10:03:10.355Z,20.67
2018-10-21T10:05:39.035Z,23.50
2018-10-21T10:08:07.606Z,17.07
2018-10-21T10:10:36.137Z,20.23
2018-10-21T10:13:04.724Z,17.70
2018-10-21T10:15:33.261Z,16.73
2018-10-21T10:18:01.842Z,17.80
2018-10-21T10:20:30.420Z,19.27
2018-10-21T10:22:58.884Z,18.83
2018-10-21T10:25:27.484Z,22.27
2018-10-21T10:27:56.108Z,18.87
2018-10-21T10:30:24.681Z,20.83
2018-10-21T10:32:53.230Z,19.93
2018-10-21T10:35:21.688Z,18.87
2018-10-21T10:37:50.166Z,16.60
2018-10-21T10:40:18.716Z,19.50
2018-10-21T10:42:47.242Z,18.70
2018-10-21T10:45:15.725Z,17.77
2018-10-21T10:47:44.313Z,17.27
2018-10-21T10:50:12.893Z,18.27
2018-10-21T10:52:41.364Z,15.90
2018-10-21T10:55:10.350Z,16.07
2018-10-21T10:57:38.944Z,17.27
2018-10-21T11:00:11.788Z,17.53
2018-10-21T11:02:40.404Z,16.30
2018-10-21T11:05:09.809Z,15.03
2018-10-21T11:07:38.390Z,14.60
2018-10-21T11:10:08.523Z,16.53
2018-10-21T11:12:37.086Z,17.13
2018-10-21T11:15:06.715Z,13.50
2018-10-21T11:17:35.282Z,13.17
2018-10-21T11:20:04.471Z,13.43
2018-10-21T11:22:33.049Z,16.27
2018-10-21T11:25:01.688Z,11.10
2018-10-21T11:27:30.239Z,15.20
2018-10-21T11:29:58.796Z,12.23
2018-10-21T11:32:27.324Z,14.50
2018-10-21T11:34:55.871Z,12.77
2018-10-21T11:37:24.551Z,10.43
2018-10-21T11:39:52.827Z,11.20
2018-10-21T11:42:21.296Z,10.07
2018-10-21T11:44:50.302Z,11.50
2018-10-21T11:47:18.758Z,14.97
2018-10-21T11:49:47.228Z,11.97
2018-10-21T11:52:15.873Z,10.50
2018-10-21T11:54:44.317Z,10.87
2018-10-21T11:57:12.794Z,10.17
2018-10-21T11:59:41.290Z,11.50
2018-10-21T12:02:09.961Z,13.93
2018-10-21T12:04:38.466Z,10.87
2018-10-21T12:07:07.039Z,12.50
2018-10-21T12:09:35.507Z,10.50
2018-10-21T12:12:04.006Z,13.17
2018-10-21T12:14:32.497Z,13.97
2018-10-21T12:17:00.974Z,11.17
2018-10-21T12:19:29.487Z,13.13
2018-10-21T12:21:58.015Z,10.93
2018-10-21T12:24:26.487Z,13.57
2018-10-21T12:26:55.474Z,13.20
2018-10-21T12:29:23.953Z,12.47
2018-10-21T12:31:52.425Z,11.10
2018-10-21T12:34:20.927Z,13.37
2018-10-21T12:36:49.440Z,13.63
2018-10-21T12:39:17.916Z,14.33
2018-10-21T12:41:46.454Z,12.53
2018-10-21T12:44:15.034Z,12.90
2018-10-21T12:46:43.488Z,14.00
2018-10-21T12:49:12.066Z,15.77
2018-10-21T12:51:40.547Z,15.23
2018-10-21T12:54:09.280Z,15.23
2018-10-21T12:56:37.644Z,17.00
2018-10-21T12:59:06.137Z,14.03
2018-10-21T13:01:34.701Z,15.53
2018-10-21T13:04:03.226Z,11.73
2018-10-21T13:06:31.751Z,10.17
2018-10-21T13:09:00.237Z,9.13
2018-10-21T13:11:28.786Z,7.80
2018-10-21T13:13:57.257Z,8.73
2018-10-21T13:16:25.707Z,9.03
2018-10-21T13:18:54.713Z,8.50
2018-10-21T13:21:23.142Z,9.07
2018-10-21T13:23:51.619Z,9.43
2018-10-21T13:26:20.119Z,9.80
2018-10-21T13:28:48.563Z,8.57
2018-10-21T13:31:17.097Z,9.60
2018-10-21T13:33:45.651Z,10.87
2018-10-21T13:36:14.111Z,10.83
2018-10-21T13:38:42.607Z,7.50
2018-10-21T13:41:11.119Z,11.33
2018-10-21T13:43:39.595Z,9.47
2018-10-21T13:46:08.085Z,8.67
2018-10-21T13:48:36.650Z,9.30
2018-10-21T13:51:05.830Z,12.57
2018-10-21T13:53:34.502Z,10.20
2018-10-21T13:56:02.997Z,11.73
2018-10-21T13:58:31.527Z,12.70
2018-10-21T14:01:00.118Z,8.97
2018-10-21T14:03:28.734Z,9.07
2018-10-21T14:05:57.210Z,9.70
2018-10-21T14:08:25.794Z,8.03
2018-10-21T14:10:54.380Z,8.77
2018-10-21T14:13:22.954Z,7.97
2018-10-21T14:15:51.470Z,8.33
2018-10-21T14:18:19.970Z,9.07
2018-10-21T14:20:48.428Z,9.37
2018-10-21T14:23:16.887Z,9.33
2018-10-21T14:25:45.450Z,10.67
2018-10-21T14:28:13.947Z,9.53
2018-10-21T14:30:42.462Z,9.50
2018-10-21T14:33:11.033Z,8.60
2018-10-21T14:35:39.517Z,9.63
2018-10-21T14:38:11.337Z,8.23
2018-10-21T14:40:39.760Z,10.80
2018-10-21T14:43:08.237Z,10.80
2018-10-21T14:45:37.236Z,8.27
2018-10-21T14:48:05.733Z,9.77
2018-10-21T14:50:34.170Z,11.07
2018-10-21T14:53:02.713Z,11.13
2018-10-21T14:55:31.316Z,9.50
2018-10-21T14:57:59.804Z,8.27
2018-10-21T15:00:28.388Z,6.40
2018-10-21T15:02:56.793Z,9.67
2018-10-21T15:05:25.333Z,8.80
2018-10-21T15:07:53.918Z,6.87
2018-10-21T15:10:22.537Z,6.50
2018-10-21T15:12:50.927Z,9.10
2018-10-21T15:15:19.391Z,7.20
2018-10-21T15:17:47.880Z,8.33
2018-10-21T15:20:16.462Z,6.90
2018-10-21T15:22:44.959Z,8.23
2018-10-21T15:25:13.456Z,7.13
2018-10-21T15:27:42.460Z,6.03
2018-10-21T15:30:11.943Z,8.60
2018-10-21T15:32:40.983Z,8.53
2018-10-21T15:35:09.796Z,9.40
2018-10-21T15:37:38.300Z,8.07
2018-10-21T15:40:08.257Z,6.77
2018-10-21T15:42:37.001Z,9.40
2018-10-21T15:45:07.855Z,7.80
2018-10-21T15:47:36.451Z,8.73
2018-10-21T15:50:05.696Z,11.37
2018-10-21T15:52:34.134Z,13.73
2018-10-21T15:55:03.197Z,16.10
2018-10-21T15:57:34.872Z,12.03
2018-10-21T16:00:03.439Z,16.10
2018-10-21T16:02:32.042Z,15.27
2018-10-21T16:05:00.669Z,16.73
2018-10-21T16:07:29.295Z,19.97
2018-10-21T16:09:58.976Z,23.83
2018-10-21T16:12:27.955Z,26.20
2018-10-21T16:14:56.583Z,27.40
2018-10-21T16:17:25.078Z,28.70
2018-10-21T16:19:53.646Z,33.47
2018-10-21T16:22:22.119Z,28.13
2018-10-21T16:24:50.601Z,31.23
2018-10-21T16:27:19.184Z,29.77
2018-10-21T16:29:47.762Z,33.60
2018-10-21T16:32:16.322Z,35.07
2018-10-21T16:34:44.733Z,31.23
2018-10-21T16:37:13.250Z,33.97
2018-10-21T16:39:41.742Z,33.33
2018-10-21T16:42:10.360Z,39.23
2018-10-21T16:44:38.846Z,44.80
2018-10-21T16:47:07.323Z,43.03
2018-10-21T16:49:35.847Z,37.10
2018-10-21T16:52:04.491Z,37.60
2018-10-21T16:54:33.130Z,37.57
2018-10-21T16:57:01.580Z,33.77
2018-10-21T16:59:30.056Z,36.80
2018-10-21T17:01:58.480Z,37.43
2018-10-21T17:04:26.985Z,33.23
2018-10-21T17:06:55.716Z,34.83
2018-10-21T17:09:24.560Z,33.07
2018-10-21T17:11:53.152Z,36.07
2018-10-21T17:14:21.656Z,38.37
2018-10-21T17:16:50.211Z,37.47
2018-10-21T17:19:18.688Z,40.40
2018-10-21T17:21:47.670Z,40.80
2018-10-21T17:24:16.166Z,39.67
2018-10-21T17:26:44.636Z,42.63
2018-10-21T17:29:13.324Z,34.10
2018-10-21T17:31:41.985Z,35.93
2018-10-21T17:34:13.663Z,39.17
2018-10-21T17:36:42.344Z,37.97
2018-10-21T17:39:13.695Z,37.47
2018-10-21T17:41:42.350Z,37.67
2018-10-21T17:44:14.097Z,37.97
2018-10-21T17:46:42.941Z,36.60
2018-10-21T17:49:11.440Z,38.60
2018-10-21T17:51:39.890Z,35.00
2018-10-21T17:54:08.485Z,39.73
2018-10-21T17:56:41.343Z,33.90
2018-10-21T17:59:09.897Z,37.17
2018-10-21T18:01:42.502Z,39.40
2018-10-21T18:04:12.367Z,36.53
2018-10-21T18:06:47.315Z,38.33
2018-10-21T18:09:16.928Z,40.03
2018-10-21T18:11:47.918Z,38.67
2018-10-21T18:14:16.416Z,36.03
2018-10-21T18:16:44.949Z,36.43
2018-10-21T18:19:13.748Z,35.53
2018-10-21T18:21:42.196Z,35.50
2018-10-21T18:24:10.802Z,33.17
2018-10-21T18:26:40.815Z,30.37
2018-10-21T18:29:10.468Z,32.00
2018-10-21T18:31:43.087Z,34.77
2018-10-21T18:34:12.764Z,33.13
2018-10-21T18:36:46.305Z,33.87
2018-10-21T18:39:15.296Z,37.30
2018-10-21T18:41:44.978Z,35.70
2018-10-21T18:44:13.459Z,36.77
2018-10-21T18:46:46.144Z,38.63
2018-10-21T18:49:15.338Z,36.77
2018-10-21T18:51:44.962Z,45.93
2018-10-21T18:54:13.457Z,44.23
2018-10-21T18:56:42.221Z,55.33
2018-10-21T18:59:11.801Z,53.73
2018-10-21T19:01:40.931Z,46.63
2018-10-21T19:04:09.496Z,45.43
2018-10-21T19:06:39.002Z,53.90
2018-10-21T19:09:13.781Z,50.33
2018-10-21T19:11:42.438Z,52.60
2018-10-21T19:14:12.265Z,47.40
2018-10-21T19:16:40.767Z,44.80
2018-10-21T19:19:09.950Z,49.63
2018-10-21T19:21:38.863Z,50.27
2018-10-21T19:24:08.279Z,47.43
2018-10-21T19:26:40.050Z,49.77
2018-10-21T19:29:09.672Z,49.77
2018-10-21T19:31:38.187Z,58.13
2018-10-21T19:34:06.841Z,56.97
2018-10-21T19:36:39.878Z,55.63
2018-10-21T19:39:11.679Z,58.93
2018-10-21T19:41:42.832Z,53.23
2018-10-21T19:44:12.215Z,56.00
2018-10-21T19:46:41.894Z,50.77
2018-10-21T19:49:10.554Z,51.13
2018-10-21T19:51:42.845Z,56.83
2018-10-21T19:54:11.532Z,57.00
2018-10-21T19:56:39.993Z,55.57
2018-10-21T19:59:08.520Z,64.80
2018-10-21T20:01:37.092Z,54.50
2018-10-21T20:04:06.751Z,58.17
2018-10-21T20:06:35.634Z,62.60
2018-10-21T20:09:05.599Z,64.07
2018-10-21T20:11:34.440Z,66.63
2018-10-21T20:14:02.908Z,64.33
2018-10-21T20:16:31.564Z,64.20
2018-10-21T20:19:00.155Z,66.23
2018-10-21T20:21:28.683Z,72.60
2018-10-21T20:23:57.303Z,73.57
2018-10-21T20:26:25.776Z,78.77
2018-10-21T20:28:54.371Z,89.43
2018-10-21T20:31:22.872Z,92.93
2018-10-21T20:33:51.403Z,98.63
2018-10-21T20:36:19.892Z,104.23
2018-10-21T20:38:48.376Z,100.70
2018-10-21T20:41:16.879Z,112.20
2018-10-21T20:43:45.382Z,129.40
2018-10-21T20:46:13.983Z,137.03
2018-10-21T20:48:42.360Z,117.20
2018-10-21T20:51:10.898Z,114.70
2018-10-21T20:53:39.290Z,92.10
2018-10-21T20:56:10.689Z,106.33
2018-10-21T20:58:39.237Z,106.93
2018-10-21T21:01:07.897Z,102.53
2018-10-21T21:03:36.400Z,113.60
2018-10-21T21:06:04.974Z,115.80
2018-10-21T21:08:33.520Z,95.73
2018-10-21T21:11:01.989Z,128.50
2018-10-21T21:13:30.473Z,138.17
2018-10-21T21:15:58.989Z,143.83
2018-10-21T21:18:27.520Z,200.77
2018-10-21T21:20:55.979Z,159.20
2018-10-21T21:23:24.601Z,200.53
2018-10-21T21:25:53.072Z,173.17
2018-10-21T21:28:21.528Z,205.33
2018-10-21T21:30:50.070Z,167.40
2018-10-21T21:33:18.613Z,169.07
2018-10-21T21:35:47.070Z,204.30
2018-10-21T21:38:15.674Z,145.67
2018-10-21T21:40:44.153Z,194.87
2018-10-21T21:43:12.742Z,132.17
2018-10-21T21:45:41.324Z,156.37
2018-10-21T21:48:09.851Z,181.37
2018-10-21T21:50:38.260Z,127.47
2018-10-21T21:53:06.786Z,152.53
2018-10-21T21:55:35.329Z,166.67
2018-10-21T21:58:03.850Z,160.60
2018-10-21T22:00:32.294Z,165.70
2018-10-21T22:03:00.765Z,205.50
2018-10-21T22:05:29.196Z,258.67
2018-10-21T22:07:57.748Z,224.53
2018-10-21T22:10:29.087Z,198.43
2018-10-21T22:12:57.661Z,286.57
2018-10-21T22:15:26.121Z,260.83
2018-10-21T22:17:54.577Z,262.43
2018-10-21T22:20:23.076Z,260.80
2018-10-21T22:22:51.556Z,245.23
2018-10-21T22:25:20.028Z,342.10
2018-10-21T22:27:48.497Z,392.70
2018-10-21T22:30:17.052Z,406.30
2018-10-21T22:32:45.531Z,452.47
2018-10-21T22:35:14.063Z,421.73
2018-10-21T22:37:42.532Z,411.30
2018-10-21T22:40:11.050Z,536.27
2018-10-21T22:42:39.506Z,530.50
2018-10-21T22:45:08.727Z,514.03
2018-10-21T22:47:37.407Z,533.20
2018-10-21T22:50:07.753Z,462.83
2018-10-21T22:52:36.212Z,466.60
2018-10-21T22:55:05.242Z,441.30
2018-10-21T22:57:33.806Z,410.37
2018-10-21T23:00:02.416Z,473.97
2018-10-21T23:02:30.951Z,454.87
2018-10-21T23:04:59.451Z,441.23
2018-10-21T23:07:30.854Z,412.43
2018-10-21T23:09:59.709Z,416.37
2018-10-21T23:12:28.164Z,492.07
2018-10-21T23:14:56.683Z,525.83
2018-10-21T23:17:25.330Z,419.63
2018-10-21T23:19:53.781Z,480.53
2018-10-21T23:22:22.247Z,373.87
2018-10-21T23:24:50.740Z,460.13
2018-10-21T23:27:20.099Z,558.60
2018-10-21T23:29:48.548Z,567.63
2018-10-21T23:32:17.041Z,557.93
2018-10-21T23:34:45.585Z,523.40
2018-10-21T23:37:14.014Z,491.17
2018-10-21T23:39:42.513Z,496.70
2018-10-21T23:42:11.033Z,462.97
2018-10-21T23:44:39.487Z,490.20
2018-10-21T23:47:07.963Z,451.57
2018-10-21T23:49:36.556Z,446.23
2018-10-21T23:52:05.864Z,473.23
2018-10-21T23:54:34.544Z,423.67
2018-10-21T23:57:07.230Z,411.17
2018-10-21T23:59:36.588Z,381.17
